Time;durP1;ratioP1;P1;durP2;ratioP2;P2;SDS_P1;SDS_P2;PMS_P1;PMS_P2;Temp;Humidity;BMP_temperature;BMP_pressure;BME280_temperature;BME280_humidity;BME280_pressure;Samples;Min_cycle;Max_cycle;Signal;HPM_P1;HPM_P2
2022/04/17 00:00:10;;;;;;;2.65;0.82;;;;;;;21.80;19.90;100277.16;2079644;28;20056;-75
2022/04/17 00:01:33;;;;;;;0.98;0.60;;;;;;;21.72;20.55;100279.28;2073496;28;20049;-76
2022/04/17 00:02:54;;;;;;;1.90;0.75;;;;;;;21.73;19.80;100264.88;2073640;28;20106;-76
2022/04/17 00:04:17;;;;;;;1.15;0.45;;;;;;;21.76;19.80;100276.41;2077189;28;20046;-76
2022/04/17 00:05:39;;;;;;;2.20;0.75;;;;;;;21.80;19.27;100295.97;2065854;28;20049;-76
2022/04/17 00:07:04;;;;;;;2.05;1.00;;;;;;;21.81;19.42;100286.97;2081889;28;20105;-76
2022/04/17 00:08:27;;;;;;;3.45;1.10;;;;;;;21.82;19.94;100297.66;2073989;28;20041;-76
2022/04/17 00:09:48;;;;;;;2.38;0.88;;;;;;;21.83;19.54;100293.16;2084360;28;20065;-75
2022/04/17 00:11:11;;;;;;;2.42;1.00;;;;;;;21.88;19.53;100291.19;2073480;28;20132;-75
2022/04/17 00:12:32;;;;;;;3.45;1.00;;;;;;;21.96;19.87;100272.09;2069682;28;20459;-75
2022/04/17 00:13:58;;;;;;;2.03;1.05;;;;;;;22.03;19.45;100265.56;2071893;28;20505;-76
2022/04/17 00:15:21;;;;;;;6.13;1.30;;;;;;;22.07;19.39;100259.97;2068879;28;20058;-75
2022/04/17 00:16:43;;;;;;;4.35;0.85;;;;;;;22.14;19.87;100236.41;2062350;28;20459;-74
2022/04/17 00:18:06;;;;;;;2.35;0.90;;;;;;;22.17;20.19;100237.19;2054275;28;20144;-75
2022/04/17 00:19:29;;;;;;;3.65;1.52;;;;;;;22.18;20.13;100230.00;2067586;28;20469;-75
2022/04/17 00:20:51;;;;;;;3.67;1.38;;;;;;;22.18;20.43;100213.88;2065037;28;20050;-75
2022/04/17 00:22:16;;;;;;;3.42;1.30;;;;;;;22.17;21.21;100206.72;2085035;28;20620;-75
2022/04/17 00:23:39;;;;;;;3.95;1.67;;;;;;;22.14;22.17;100231.91;2076286;28;20049;-75
2022/04/17 00:25:02;;;;;;;4.15;1.48;;;;;;;22.12;22.51;100228.41;2085597;28;20075;-76
2022/04/17 00:26:24;;;;;;;3.63;1.55;;;;;;;22.11;22.87;100240.13;2061445;28;20416;-75
2022/04/17 00:27:47;;;;;;;2.58;1.20;;;;;;;22.13;23.32;100231.97;2060062;28;20092;-76
2022/04/17 00:29:08;;;;;;;3.70;1.40;;;;;;;22.16;23.31;100231.88;2083203;28;20119;-76
2022/04/17 00:30:31;;;;;;;7.72;2.00;;;;;;;22.26;23.30;100235.91;2074763;28;20058;-76
2022/04/17 00:31:52;;;;;;;5.40;2.20;;;;;;;22.32;23.58;100237.50;2084004;28;20078;-75
2022/04/17 00:33:15;;;;;;;2.35;1.27;;;;;;;22.32;24.18;100246.41;2065994;28;20054;-75
2022/04/17 00:34:37;;;;;;;4.93;1.80;;;;;;;22.31;24.94;100251.88;2062937;28;20054;-75
2022/04/17 00:36:00;;;;;;;6.10;1.92;;;;;;;22.33;25.11;100248.19;2080749;28;20056;-75
2022/04/17 00:37:24;;;;;;;6.10;1.92;;;;;;;22.37;25.78;100232.81;2072117;28;20081;-75
2022/04/17 00:38:46;;;;;;;8.23;2.50;;;;;;;22.39;26.60;100233.59;2086672;28;20540;-75
2022/04/17 00:40:09;;;;;;;4.35;1.85;;;;;;;22.41;26.55;100243.38;2067128;28;20050;-76
2022/04/17 00:41:33;;;;;;;5.30;1.80;;;;;;;22.41;26.67;100242.50;2085329;28;20536;-75
2022/04/17 00:42:58;;;;;;;8.13;1.63;;;;;;;22.35;26.52;100230.16;2067163;28;20100;-75
2022/04/17 00:44:20;;;;;;;4.75;1.60;;;;;;;22.34;26.63;100235.59;2070210;28;20154;-75
2022/04/17 00:45:43;;;;;;;2.38;1.35;;;;;;;22.35;27.02;100226.59;2085715;28;20637;-75
2022/04/17 00:47:08;;;;;;;4.43;1.85;;;;;;;22.38;27.02;100219.31;2073961;28;20087;-75
2022/04/17 00:48:31;;;;;;;7.07;1.83;;;;;;;22.42;27.55;100225.41;2058272;28;20058;-75
2022/04/17 00:49:54;;;;;;;4.38;1.50;;;;;;;22.44;27.58;100215.47;2067620;28;20065;-75
2022/04/17 00:51:16;;;;;;;7.80;1.67;;;;;;;22.45;27.92;100211.84;2073564;28;20041;-74
2022/04/17 00:52:41;;;;;;;2.33;1.42;;;;;;;22.45;27.58;100210.00;2075726;28;20046;-75
2022/04/17 00:54:03;;;;;;;9.15;2.65;;;;;;;22.47;27.83;100196.50;2070480;28;20052;-75
2022/04/17 00:55:26;;;;;;;3.20;1.50;;;;;;;22.45;28.28;100201.94;2062325;28;20194;-75
2022/04/17 00:56:48;;;;;;;4.35;1.80;;;;;;;22.45;28.23;100190.34;2078179;28;20482;-76
2022/04/17 00:58:13;;;;;;;2.97;1.65;;;;;;;22.42;28.42;100172.50;2070079;28;20049;-75
2022/04/17 00:59:34;;;;;;;14.13;1.73;;;;;;;22.41;28.98;100142.97;2076228;28;20072;-75
2022/04/17 01:00:57;;;;;;;6.55;2.22;;;;;;;22.39;28.89;100143.00;2070319;28;20589;-75
2022/04/17 01:02:19;;;;;;;4.35;1.65;;;;;;;22.37;28.83;100130.59;2061618;28;20092;-76
2022/04/17 01:03:41;;;;;;;9.77;1.98;;;;;;;22.35;28.57;100119.91;2061791;28;20477;-76
2022/04/17 01:05:04;;;;;;;;;;;;;;;22.32;28.94;100113.78;2070375;28;20110;-75
2022/04/17 01:06:27;;;;;;;6.18;1.75;;;;;;;22.29;29.26;100111.22;2079632;28;19929;-75
2022/04/17 01:07:52;;;;;;;4.72;1.60;;;;;;;22.25;29.42;100108.63;2073193;28;20151;-76
2022/04/17 01:09:15;;;;;;;6.85;2.80;;;;;;;22.22;29.77;100115.97;2084768;28;20672;-75
2022/04/17 01:10:38;;;;;;;10.45;2.35;;;;;;;22.19;29.57;100102.66;2062722;28;20700;-76
2022/04/17 01:11:59;;;;;;;10.77;2.42;;;;;;;22.15;30.15;100090.28;2067304;28;20387;-76
2022/04/17 01:13:23;;;;;;;6.75;1.80;;;;;;;22.15;30.11;100095.66;2069558;28;20046;-75
2022/04/17 01:14:46;;;;;;;7.65;2.17;;;;;;;22.14;30.56;100100.16;2067569;28;20042;-75
2022/04/17 01:16:08;;;;;;;11.95;3.75;;;;;;;22.19;30.29;100089.22;2075381;28;20084;-75
2022/04/17 01:17:30;;;;;;;6.10;1.88;;;;;;;22.23;30.49;100064.84;2072555;28;20127;-75
2022/04/17 01:18:56;;;;;;;7.97;2.60;;;;;;;22.34;30.23;100028.50;2071596;28;20047;-75
2022/04/17 01:20:20;;;;;;;8.25;2.30;;;;;;;22.41;30.55;100044.31;2077789;28;20053;-76
2022/04/17 01:21:46;;;;;;;8.45;2.00;;;;;;;22.51;30.49;100048.31;2074520;28;20054;-75
2022/04/17 01:28:08;;;;;;;12.63;2.42;;;;;;;22.66;29.79;100015.34;2065201;28;20069;-76
2022/04/17 01:29:31;;;;;;;14.88;2.75;;;;;;;22.70;29.59;100005.34;2059267;28;20149;-75
2022/04/17 01:30:54;;;;;;;6.18;2.13;;;;;;;22.67;29.87;100003.66;2061577;28;20459;-74
2022/04/17 01:32:17;;;;;;;14.77;3.28;;;;;;;22.66;29.87;99980.38;2061746;28;20053;-75
2022/04/17 01:33:38;;;;;;;10.68;3.00;;;;;;;22.67;29.65;99975.88;2061872;28;20050;-76
2022/04/17 01:35:01;;;;;;;10.57;2.92;;;;;;;22.66;29.85;99964.22;2055840;28;20050;-75
2022/04/17 01:36:22;;;;;;;9.90;2.85;;;;;;;22.62;30.31;99965.31;2059153;28;20494;-75
2022/04/17 01:37:49;;;;;;;7.07;2.47;;;;;;;22.58;30.31;99963.69;2064082;28;20046;-75
2022/04/17 01:39:10;;;;;;;12.77;2.55;;;;;;;22.54;30.34;99953.16;2085262;28;20098;-75
2022/04/17 01:40:33;;;;;;;7.75;2.30;;;;;;;22.49;30.44;99965.97;2066533;28;20054;-75
2022/04/17 01:41:55;;;;;;;11.95;2.35;;;;;;;22.45;30.07;99964.38;2063218;28;20566;-75
2022/04/17 01:43:18;;;;;;;6.15;2.55;;;;;;;22.45;29.99;99967.06;2074102;28;20045;-75
2022/04/17 01:44:40;;;;;;;9.80;2.33;;;;;;;22.42;30.22;99975.25;2072531;28;20124;-75
2022/04/17 01:46:02;;;;;;;10.50;2.15;;;;;;;22.36;30.68;99972.84;2064294;28;20050;-75
2022/04/17 01:47:24;;;;;;;7.53;1.77;;;;;;;22.29;30.51;99977.63;2060848;28;20042;-75
2022/04/17 01:48:46;;;;;;;9.32;2.83;;;;;;;22.21;31.18;99972.59;2069521;28;20046;-75
2022/04/17 01:50:09;;;;;;;8.32;2.90;;;;;;;22.15;31.35;99972.00;2056149;28;20072;-75
2022/04/17 01:51:35;;;;;;;10.77;3.08;;;;;;;22.07;31.38;99969.63;2074909;28;20143;-76
2022/04/17 01:53:00;;;;;;;8.60;2.35;;;;;;;22.00;31.64;99975.34;2068015;28;20054;-75
2022/04/17 01:54:24;;;;;;;10.32;2.80;;;;;;;21.94;31.65;99979.16;2076224;28;20072;-75
2022/04/17 01:55:45;;;;;;;7.05;2.00;;;;;;;21.90;32.06;99977.53;2077762;28;20052;-75
2022/04/17 01:57:08;;;;;;;10.68;2.22;;;;;;;21.87;32.20;99973.16;2077777;28;20605;-75
2022/04/17 01:58:29;;;;;;;7.55;2.00;;;;;;;21.93;31.33;99960.38;2060981;28;20050;-75
2022/04/17 01:59:52;;;;;;;12.63;2.50;;;;;;;21.96;31.07;99944.19;2074515;28;20072;-75
2022/04/17 02:01:14;;;;;;;10.45;2.10;;;;;;;22.01;30.47;99950.22;2058213;28;20153;-75
2022/04/17 02:02:36;;;;;;;11.50;2.10;;;;;;;22.03;30.49;99951.03;2070929;28;20054;-75
2022/04/17 02:03:58;;;;;;;7.40;2.00;;;;;;;22.02;30.34;99949.28;2072053;28;20038;-76
2022/04/17 02:05:21;;;;;;;5.55;1.80;;;;;;;22.01;30.64;99958.28;2085390;28;20056;-75
2022/04/17 02:06:43;;;;;;;11.65;2.47;;;;;;;22.00;30.52;99961.91;2074809;28;20084;-75
2022/04/17 02:08:07;;;;;;;;;;;;;;;21.93;30.76;99973.81;2069179;28;20511;-76
2022/04/17 02:09:29;;;;;;;5.90;1.40;;;;;;;21.84;31.18;100013.63;2065119;28;19922;-75
2022/04/17 02:10:51;;;;;;;12.48;3.10;;;;;;;21.79;32.14;100036.25;2069216;28;20137;-75
2022/04/17 02:12:14;;;;;;;3.67;0.82;;;;;;;21.72;32.42;100026.69;2071599;28;20047;-75
2022/04/17 02:13:36;;;;;;;3.65;1.77;;;;;;;21.69;31.66;100019.63;2053502;28;20054;-75
2022/04/17 02:14:59;;;;;;;10.23;1.33;;;;;;;21.67;31.71;100034.06;2071364;28;20060;-74
2022/04/17 02:16:21;;;;;;;4.68;1.38;;;;;;;21.63;31.31;100027.06;2063936;28;20054;-75
2022/04/17 02:17:43;;;;;;;4.63;1.58;;;;;;;21.63;31.25;99992.16;2081318;28;20055;-75
2022/04/17 02:19:06;;;;;;;2.47;1.02;;;;;;;21.60;31.05;99987.75;2059681;28;20043;-74
2022/04/17 02:20:27;;;;;;;4.25;1.58;;;;;;;21.58;31.62;99970.00;2074975;28;20041;-74
2022/04/17 02:21:50;;;;;;;9.38;2.03;;;;;;;21.56;31.11;99967.34;2065273;28;20050;-75
2022/04/17 02:23:13;;;;;;;5.60;1.92;;;;;;;21.55;31.38;99970.09;2059573;28;20116;-74
2022/04/17 02:24:35;;;;;;;5.47;1.48;;;;;;;21.51;31.13;99947.88;2081963;28;20109;-74
2022/04/17 02:25:56;;;;;;;7.40;1.60;;;;;;;21.47;31.72;99920.25;2074649;28;20535;-75
2022/04/17 02:27:19;;;;;;;5.80;1.38;;;;;;;21.46;31.46;99915.81;2063571;28;20077;-75
2022/04/17 02:28:42;;;;;;;6.60;2.03;;;;;;;21.47;31.56;99925.63;2069331;28;20046;-75
2022/04/17 02:30:06;;;;;;;9.95;1.70;;;;;;;21.47;31.55;99908.66;2085053;28;20045;-74
2022/04/17 02:31:29;;;;;;;5.20;1.58;;;;;;;21.46;31.52;99907.78;2066065;28;20042;-75
2022/04/17 02:32:52;;;;;;;6.78;1.95;;;;;;;21.47;32.04;99922.06;2074060;28;20049;-75
2022/04/17 02:34:15;;;;;;;7.55;1.80;;;;;;;21.47;31.61;99940.88;2063926;28;20669;-74
2022/04/17 02:35:36;;;;;;;9.45;1.73;;;;;;;21.43;31.71;99947.31;2066337;28;20095;-74
2022/04/17 02:36:59;;;;;;;5.93;1.67;;;;;;;21.44;31.87;99941.91;2069703;28;20045;-74
2022/04/17 02:38:22;;;;;;;3.40;1.63;;;;;;;21.46;31.11;99926.56;2083767;28;20473;-75
2022/04/17 02:39:45;;;;;;;2.05;0.93;;;;;;;21.47;30.96;99943.56;2073668;28;20069;-74
2022/04/17 02:41:06;;;;;;;4.00;1.05;;;;;;;21.46;30.74;99917.66;2085777;28;20147;-75
2022/04/17 02:42:29;;;;;;;2.90;1.20;;;;;;;21.41;30.76;99920.53;2066613;28;20046;-76
2022/04/17 02:43:51;;;;;;;3.90;1.02;;;;;;;21.37;30.84;99904.63;2069198;28;20654;-75
2022/04/17 02:45:12;;;;;;;2.95;0.93;;;;;;;21.31;31.18;99900.38;2085114;28;20048;-74
2022/04/17 02:48:14;;;;;;;7.63;1.50;;;;;;;21.28;31.34;99884.38;2086832;28;20386;-75
2022/04/17 02:49:36;;;;;;;4.07;1.30;;;;;;;21.30;31.71;99885.22;2074131;28;20560;-75
2022/04/17 02:50:58;;;;;;;7.00;1.38;;;;;;;21.29;31.44;99901.38;2085606;28;20041;-75
2022/04/17 02:52:21;;;;;;;4.10;1.50;;;;;;;21.24;32.35;99938.28;2073651;28;20161;-75
2022/04/17 02:53:45;;;;;;;6.53;1.35;;;;;;;21.20;32.77;99934.00;2069049;28;20076;-74
2022/04/17 02:55:07;;;;;;;4.53;1.40;;;;;;;21.15;32.74;99933.25;2068891;28;20140;-75
2022/04/17 02:56:29;;;;;;;10.27;2.17;;;;;;;21.13;32.64;99922.59;2068294;28;20404;-75
2022/04/17 02:57:51;;;;;;;6.18;1.50;;;;;;;21.13;32.72;99919.91;2063058;28;20634;-75
2022/04/17 02:59:15;;;;;;;7.63;1.55;;;;;;;21.19;32.42;99900.03;2064350;28;20128;-75
2022/04/17 03:05:36;;;;;;;4.10;1.00;;;;;;;21.21;32.33;99890.94;2066715;28;20069;-74
2022/04/17 03:05:41;;;;;;;4.05;1.25;;;;;;;21.16;32.34;99884.03;2071777;28;20100;-75
2022/04/17 03:07:04;;;;;;;5.53;1.25;;;;;;;21.14;32.34;99884.06;2084368;28;20079;-76
2022/04/17 03:08:28;;;;;;;5.82;1.23;;;;;;;21.12;32.30;99891.31;2074822;28;20561;-75
2022/04/17 03:09:51;;;;;;;4.05;1.75;;;;;;;21.11;32.32;99899.44;2053343;28;20519;-75
2022/04/17 03:11:14;;;;;;;5.97;1.27;;;;;;;21.07;32.67;99888.81;2073626;28;20140;-75
2022/04/17 03:12:36;;;;;;;5.60;1.27;;;;;;;21.07;32.58;99890.63;2071418;28;20061;-75
2022/04/17 03:13:59;;;;;;;5.22;1.35;;;;;;;21.06;32.56;99926.47;2068597;28;20420;-76
2022/04/17 03:15:22;;;;;;;9.43;1.33;;;;;;;21.04;32.57;99917.59;2060352;28;20082;-75
2022/04/17 03:16:43;;;;;;;3.65;1.17;;;;;;;21.02;32.41;99901.56;2066554;28;20053;-75
2022/04/17 03:18:06;;;;;;;9.00;1.63;;;;;;;21.01;32.38;99910.53;2060408;28;20058;-76
2022/04/17 03:19:28;;;;;;;6.35;1.45;;;;;;;21.02;32.19;99906.03;2063427;28;20042;-76
2022/04/17 03:20:51;;;;;;;3.58;0.98;;;;;;;21.01;32.23;99923.06;2085385;28;20049;-75
2022/04/17 03:22:12;;;;;;;24.02;2.78;;;;;;;21.00;32.41;99908.78;2064842;28;20539;-75
2022/04/17 03:23:35;;;;;;;9.82;1.70;;;;;;;20.99;32.29;99888.28;2060551;28;20041;-75
2022/04/17 03:24:59;;;;;;;9.15;1.77;;;;;;;20.98;32.66;99907.13;2074790;28;20446;-75
2022/04/17 03:26:22;;;;;;;10.40;1.77;;;;;;;20.93;34.20;99907.31;2077531;28;20041;-75
2022/04/17 03:27:46;;;;;;;6.95;1.70;;;;;;;20.86;35.34;99889.72;2070776;28;20038;-75
2022/04/17 03:29:09;;;;;;;4.20;1.30;;;;;;;20.77;36.57;99902.59;2069411;28;20529;-76
2022/04/17 03:30:32;;;;;;;3.30;1.10;;;;;;;20.63;36.78;99893.31;2061100;28;20038;-75
2022/04/17 03:31:55;;;;;;;3.95;0.80;;;;;;;20.52;36.77;99887.50;2066532;28;20070;-76
2022/04/17 03:33:17;;;;;;;6.40;1.10;;;;;;;20.46;36.69;99890.41;2085380;28;20164;-75
2022/04/17 03:34:38;;;;;;;2.30;1.05;;;;;;;20.41;36.72;99912.97;2077665;28;20139;-75
2022/04/17 03:36:01;;;;;;;3.67;1.05;;;;;;;20.41;36.02;99963.94;2068897;28;20080;-76
2022/04/17 03:37:24;;;;;;;5.57;1.05;;;;;;;20.42;35.25;99968.31;2066256;28;20061;-75
2022/04/17 03:38:46;;;;;;;6.30;1.30;;;;;;;20.47;34.78;99996.75;2060506;28;20108;-75
2022/04/17 03:40:11;;;;;;;7.32;1.52;;;;;;;20.53;34.63;99982.22;2074507;28;20068;-75
2022/04/17 03:41:35;;;;;;;3.30;0.98;;;;;;;20.57;34.19;99954.34;2057860;28;20548;-74
2022/04/17 03:42:58;;;;;;;6.38;1.63;;;;;;;20.64;35.51;99940.66;2054725;28;20047;-75
2022/04/17 03:44:19;;;;;;;5.30;1.15;;;;;;;20.61;35.98;99916.63;2067814;28;20050;-75
2022/04/17 03:45:46;;;;;;;4.60;1.42;;;;;;;20.61;35.65;99910.41;2062170;28;20046;-75
2022/04/17 03:47:08;;;;;;;9.18;2.10;;;;;;;20.56;37.47;99944.56;2061301;28;20057;-76
2022/04/17 03:48:30;;;;;;;5.75;2.88;;;;;;;20.52;37.93;99956.34;2067082;28;20096;-75
2022/04/17 03:49:52;;;;;;;8.38;1.65;;;;;;;20.49;37.88;99960.00;2070666;28;20670;-75
2022/04/17 03:51:14;;;;;;;9.48;2.55;;;;;;;20.46;38.50;99949.41;2070204;28;20157;-75
2022/04/17 03:52:39;;;;;;;7.03;1.30;;;;;;;20.43;38.49;99936.09;2070445;28;20058;-76
2022/04/17 03:54:01;;;;;;;6.57;1.60;;;;;;;20.36;39.56;99934.59;2073201;28;20073;-76
2022/04/17 03:55:26;;;;;;;3.72;1.17;;;;;;;20.30;39.25;99958.91;2086849;28;20172;-75
2022/04/17 03:56:49;;;;;;;18.42;2.38;;;;;;;20.25;39.48;99951.03;2070533;28;20590;-75
2022/04/17 03:58:11;;;;;;;8.35;1.55;;;;;;;20.25;39.71;99947.50;2067442;28;20042;-76
2022/04/17 03:59:34;;;;;;;6.60;1.40;;;;;;;20.20;39.78;99931.59;2068529;28;20061;-75
2022/04/17 04:00:57;;;;;;;7.80;1.63;;;;;;;20.19;39.91;99915.56;2085324;28;20087;-76
2022/04/17 04:02:18;;;;;;;4.65;1.50;;;;;;;20.18;39.82;99895.03;2067532;28;20080;-76
2022/04/17 04:03:41;;;;;;;6.43;1.95;;;;;;;20.15;40.44;99893.34;2067827;28;20069;-75
2022/04/17 04:05:02;;;;;;;4.97;1.38;;;;;;;20.15;40.06;99959.50;2084581;28;20053;-76
2022/04/17 04:06:25;;;;;;;6.35;1.48;;;;;;;20.14;40.26;100022.06;2074200;28;20081;-76
2022/04/17 04:07:48;;;;;;;4.72;1.40;;;;;;;20.20;39.65;100014.69;2070448;28;20085;-76
2022/04/17 04:09:09;;;;;;;4.38;1.50;;;;;;;20.29;39.05;100010.75;2068500;28;20049;-76
2022/04/17 04:10:33;;;;;;;5.65;1.38;;;;;;;20.38;38.73;99990.84;2086299;28;20127;-76
2022/04/17 04:11:55;;;;;;;5.20;1.23;;;;;;;20.43;38.32;99981.69;2074969;28;20056;-76
2022/04/17 04:13:17;;;;;;;4.47;1.02;;;;;;;20.50;37.95;99999.28;2069251;28;20057;-76
2022/04/17 04:14:40;;;;;;;8.35;1.40;;;;;;;20.55;37.39;99991.94;2073880;28;20041;-75
2022/04/17 04:16:02;;;;;;;7.13;1.90;;;;;;;20.59;37.64;99990.03;2070350;28;20078;-76
2022/04/17 04:17:25;;;;;;;15.95;1.98;;;;;;;20.59;38.51;100007.00;2070138;28;20045;-74
2022/04/17 04:18:47;;;;;;;8.40;1.98;;;;;;;20.60;38.72;100027.53;2059342;28;20120;-75
2022/04/17 04:20:11;;;;;;;16.77;2.92;;;;;;;20.61;38.25;100017.69;2075553;28;20060;-76
2022/04/17 04:21:32;;;;;;;3.95;1.13;;;;;;;20.58;37.99;99997.22;2078613;28;20055;-75
2022/04/17 04:22:57;;;;;;;10.60;1.88;;;;;;;20.56;38.74;99993.69;2069107;28;20042;-75
2022/04/17 04:24:19;;;;;;;4.22;1.88;;;;;;;20.55;38.58;100000.00;2071379;28;20057;-75
2022/04/17 04:25:44;;;;;;;1.70;0.90;;;;;;;20.58;38.12;100013.31;2080483;28;20049;-75
2022/04/17 04:28:46;;;;;;;7.40;1.83;;;;;;;20.69;36.87;99972.66;2064573;28;20045;-76
2022/04/17 04:30:09;;;;;;;13.45;2.65;;;;;;;20.76;37.03;99963.44;2070483;28;20065;-75
2022/04/17 04:31:31;;;;;;;5.10;1.65;;;;;;;20.77;36.81;99965.19;2075420;28;20037;-76
2022/04/17 04:32:53;;;;;;;3.58;1.10;;;;;;;20.78;36.67;99969.63;2082968;28;20052;-75
2022/04/17 04:34:16;;;;;;;;;;;;;;;20.78;37.08;100014.34;2075873;28;20072;-75
2022/04/17 04:35:38;;;;;;;6.13;1.45;;;;;;;20.74;37.08;99997.50;2086740;28;19920;-76
2022/04/17 04:37:00;;;;;;;5.72;1.38;;;;;;;20.75;36.87;100014.44;2072685;28;20108;-75
2022/04/17 04:38:23;;;;;;;10.00;1.58;;;;;;;20.78;36.83;100019.72;2066232;28;20050;-75
2022/04/17 04:39:45;;;;;;;7.88;2.28;;;;;;;20.78;37.39;100023.28;2075697;28;20065;-75
2022/04/17 04:41:10;;;;;;;11.07;2.20;;;;;;;20.74;38.01;100016.28;2070096;28;20054;-76
2022/04/17 04:42:32;;;;;;;5.80;1.05;;;;;;;20.67;38.39;100009.41;2070384;28;20042;-75
2022/04/17 04:43:54;;;;;;;5.10;1.52;;;;;;;20.63;37.64;100005.94;2074780;28;20431;-75
2022/04/17 04:46:57;;;;;;;11.52;2.03;;;;;;;20.81;35.49;100020.47;2088445;28;20099;-75
2022/04/17 04:49:29;;;;;;;12.02;2.53;;;;;;;20.88;35.39;99979.03;2075328;28;20069;-74
2022/04/17 04:50:02;;;;;;;9.40;1.60;;;;;;;20.94;35.38;99967.19;2088593;28;20045;-75
2022/04/17 04:51:25;;;;;;;12.45;1.95;;;;;;;20.95;35.49;99993.97;2074926;28;20053;-75
2022/04/17 04:52:48;;;;;;;6.60;1.75;;;;;;;20.92;35.88;100020.94;2070517;28;20100;-75
2022/04/17 04:54:10;;;;;;;6.80;1.73;;;;;;;20.86;36.89;100010.44;2076403;28;20053;-74
2022/04/17 04:55:33;;;;;;;5.15;1.55;;;;;;;20.81;36.99;100003.47;2062188;28;20050;-76
2022/04/17 04:56:57;;;;;;;6.20;2.25;;;;;;;20.77;37.47;99994.69;2069768;28;20099;-76
2022/04/17 04:58:18;;;;;;;14.65;2.47;;;;;;;20.74;37.53;99992.16;2077671;28;20053;-76
2022/04/17 04:59:41;;;;;;;5.93;1.80;;;;;;;20.71;37.79;100012.84;2077600;28;20585;-75
2022/04/17 05:01:03;;;;;;;5.18;1.30;;;;;;;20.67;38.36;100001.34;2077528;28;20049;-75
2022/04/17 05:02:25;;;;;;;5.40;1.35;;;;;;;20.64;37.85;99972.84;2075304;28;20054;-75
2022/04/17 05:03:46;;;;;;;8.38;1.85;;;;;;;20.66;37.36;99960.25;2084734;28;20133;-76
2022/04/17 05:05:10;;;;;;;6.07;1.30;;;;;;;20.72;36.84;99944.84;2074491;28;20574;-76
2022/04/17 05:06:33;;;;;;;5.05;1.67;;;;;;;20.74;36.60;99910.78;2086588;28;20438;-76
2022/04/17 05:07:57;;;;;;;11.27;2.55;;;;;;;20.78;36.86;99936.56;2067607;28;20345;-75
2022/04/17 05:09:20;;;;;;;11.40;1.90;;;;;;;20.81;35.74;99920.31;2051896;28;20062;-75
2022/04/17 05:10:41;;;;;;;6.85;1.75;;;;;;;20.84;35.28;99913.03;2065887;28;20068;-76
2022/04/17 05:12:07;;;;;;;5.15;1.30;;;;;;;20.90;35.38;99911.91;2073634;28;20057;-75
2022/04/17 05:13:30;;;;;;;8.88;1.80;;;;;;;20.89;35.33;99916.41;2070508;28;20099;-76
2022/04/17 05:14:53;;;;;;;4.97;1.23;;;;;;;20.89;35.39;99907.47;2069298;28;20038;-75
2022/04/17 05:16:14;;;;;;;6.80;1.33;;;;;;;20.84;35.76;99890.69;2079491;28;20160;-75
2022/04/17 05:17:37;;;;;;;6.47;1.60;;;;;;;20.77;36.43;99899.94;2066625;28;20058;-76
2022/04/17 05:19:19;;;;;;;3.92;1.33;;;;;;;20.71;37.34;99910.91;2059171;28;20076;-76
2022/04/17 05:20:42;;;;;;;5.80;1.48;;;;;;;20.65;37.58;99931.66;2075896;28;20033;-76
2022/04/17 05:22:10;;;;;;;8.88;2.08;;;;;;;20.64;37.84;99937.97;2073270;28;20768;-76
2022/04/17 05:23:33;;;;;;;3.83;1.60;;;;;;;20.63;37.79;99957.66;2078957;28;20050;-76
2022/04/17 05:24:55;;;;;;;7.53;1.35;;;;;;;20.62;38.14;99945.19;2074694;28;20145;-75
2022/04/17 05:26:18;;;;;;;4.85;1.27;;;;;;;20.63;38.20;99936.22;2075034;28;20037;-75
2022/04/17 05:27:42;;;;;;;12.38;3.30;;;;;;;20.67;38.18;99943.22;2078242;28;20053;-76
2022/04/17 05:29:04;;;;;;;4.43;1.25;;;;;;;20.71;37.98;99946.66;2069633;28;20483;-76
2022/04/17 05:30:27;;;;;;;6.70;1.20;;;;;;;20.75;38.28;99953.63;2073713;28;20061;-76
2022/04/17 05:31:53;;;;;;;9.73;1.95;;;;;;;20.78;37.81;99945.47;2061839;28;20046;-76
2022/04/17 05:33:19;;;;;;;4.07;1.95;;;;;;;20.80;37.80;99948.09;2062053;28;20180;-76
2022/04/17 05:34:42;;;;;;;9.82;2.20;;;;;;;20.82;37.43;99956.94;2066922;28;20523;-75
2022/04/17 05:36:05;;;;;;;4.97;1.20;;;;;;;20.80;36.94;99951.66;2062899;28;20132;-76
2022/04/17 05:37:27;;;;;;;6.68;1.77;;;;;;;20.85;36.74;99963.09;2073188;28;20045;-75
2022/04/17 05:38:53;;;;;;;7.07;1.63;;;;;;;20.87;36.31;99971.09;2063265;28;20046;-76
2022/04/17 05:40:15;;;;;;;8.32;1.40;;;;;;;20.85;36.79;99959.53;2066090;28;20038;-76
2022/04/17 05:41:39;;;;;;;9.13;1.58;;;;;;;20.85;36.90;99959.53;2065685;28;20045;-76
2022/04/17 05:43:03;;;;;;;4.63;1.35;;;;;;;20.84;36.49;99961.34;2068332;28;20034;-76
2022/04/17 05:44:26;;;;;;;7.05;1.60;;;;;;;20.86;36.33;99942.50;2069214;28;20371;-76
2022/04/17 05:45:48;;;;;;;4.57;1.70;;;;;;;20.87;36.22;99949.63;2085505;28;20508;-75
2022/04/17 05:47:10;;;;;;;;;;;;;;;20.82;36.79;99957.81;2085381;28;20052;-76
2022/04/17 05:48:34;;;;;;;12.95;2.17;;;;;;;20.75;36.96;99936.66;2072636;28;19951;-76
2022/04/17 05:49:57;;;;;;;4.90;1.92;;;;;;;20.74;36.67;99929.56;2084451;28;20057;-76
2022/04/17 05:51:18;;;;;;;10.18;1.50;;;;;;;20.77;36.71;99907.97;2078352;28;20042;-75
2022/04/17 05:52:42;;;;;;;5.78;1.65;;;;;;;20.81;36.87;99925.69;2062091;28;20058;-75
2022/04/17 05:54:07;;;;;;;6.20;1.52;;;;;;;20.86;36.87;99926.41;2081524;28;20075;-76
2022/04/17 05:55:30;;;;;;;3.88;1.27;;;;;;;20.85;37.09;99913.91;2074256;28;20077;-76
2022/04/17 05:56:52;;;;;;;6.10;1.83;;;;;;;20.82;37.13;99869.28;2058999;28;20140;-76
2022/04/17 05:58:16;;;;;;;14.85;1.50;;;;;;;20.80;37.29;99871.19;2072434;28;20114;-76
2022/04/17 05:59:39;;;;;;;8.80;2.25;;;;;;;20.82;37.55;99914.03;2078018;28;20057;-75
2022/04/17 06:01:03;;;;;;;5.32;1.27;;;;;;;20.82;37.94;99900.59;2072132;28;20056;-75
2022/04/17 06:02:27;;;;;;;4.72;1.55;;;;;;;20.78;37.74;99891.81;2072770;28;20136;-76
2022/04/17 06:03:51;;;;;;;8.30;1.70;;;;;;;20.78;37.40;99939.22;2072134;28;20053;-76
2022/04/17 06:05:16;;;;;;;8.13;1.70;;;;;;;20.89;36.96;99945.03;2085107;28;20399;-76
2022/04/17 06:06:39;;;;;;;19.98;2.13;;;;;;;20.97;36.28;99910.72;2068021;28;20115;-75
2022/04/17 06:08:01;;;;;;;5.70;1.75;;;;;;;21.01;35.75;99913.22;2061715;28;20076;-75
2022/04/17 06:09:24;;;;;;;6.13;1.63;;;;;;;21.05;35.68;99911.31;2063370;28;20049;-76
2022/04/17 06:10:46;;;;;;;8.02;1.23;;;;;;;21.10;36.12;99925.41;2068485;28;20115;-74
2022/04/17 06:12:08;;;;;;;2.55;1.20;;;;;;;21.16;35.73;99910.88;2069462;28;20050;-75
2022/04/17 06:13:32;;;;;;;5.97;1.50;;;;;;;21.24;35.81;99927.56;2073565;28;20090;-75
2022/04/17 06:14:55;;;;;;;5.63;1.50;;;;;;;21.27;36.08;99927.41;2068958;28;20092;-74
2022/04/17 06:16:17;;;;;;;7.95;2.22;;;;;;;21.29;36.13;99936.28;2075023;28;20158;-75
2022/04/17 06:17:41;;;;;;;9.90;1.75;;;;;;;21.32;35.54;99915.56;2063799;28;20209;-74
2022/04/17 06:19:05;;;;;;;15.85;1.83;;;;;;;21.40;35.61;99923.25;2068788;28;20041;-75
2022/04/17 06:20:26;;;;;;;6.57;1.50;;;;;;;21.45;35.78;99938.28;2069765;28;20148;-75
2022/04/17 06:21:49;;;;;;;4.25;1.38;;;;;;;21.44;36.53;99898.06;2066493;28;20049;-74
2022/04/17 06:23:13;;;;;;;3.72;1.50;;;;;;;21.37;36.92;99900.13;2075527;28;20049;-75
2022/04/17 06:24:34;;;;;;;12.98;2.20;;;;;;;21.37;37.36;99924.28;2079233;28;20045;-75
2022/04/17 06:25:56;;;;;;;8.43;1.75;;;;;;;21.35;37.39;99898.44;2061290;28;20518;-74
2022/04/17 06:27:18;;;;;;;9.02;2.67;;;;;;;21.32;37.68;99886.03;2068544;28;20050;-75
2022/04/17 06:28:42;;;;;;;5.93;2.17;;;;;;;21.34;37.52;99919.03;2085627;28;20453;-74
2022/04/17 06:30:11;;;;;;;6.70;1.75;;;;;;;21.41;37.55;99882.94;2074339;28;20156;-74
2022/04/17 06:31:34;;;;;;;11.82;1.90;;;;;;;21.44;37.61;99909.66;2069939;28;20076;-74
2022/04/17 06:32:55;;;;;;;9.20;1.63;;;;;;;21.52;37.76;99893.22;2069546;28;20045;-74
2022/04/17 06:34:19;;;;;;;7.20;2.05;;;;;;;21.61;37.14;99910.75;2069162;28;20527;-75
2022/04/17 06:35:41;;;;;;;8.95;1.95;;;;;;;21.66;36.86;99898.84;2083803;28;20044;-74
2022/04/17 06:37:04;;;;;;;13.48;1.92;;;;;;;21.67;37.31;99914.03;2074533;28;20541;-74
2022/04/17 06:38:28;;;;;;;9.18;1.80;;;;;;;21.65;37.72;99905.19;2076784;28;20094;-75
2022/04/17 06:39:49;;;;;;;10.23;2.20;;;;;;;21.62;37.01;99909.81;2073123;28;20049;-74
2022/04/17 06:41:12;;;;;;;6.07;1.48;;;;;;;21.58;37.17;99903.72;2069276;28;20577;-74